createdAt,value
2022-11-04T00:00:28.584Z,16.40
2022-11-04T00:03:19.160Z,16.40
2022-11-04T00:06:09.970Z,16.40
2022-11-04T00:09:00.327Z,16.40
2022-11-04T00:12:06.592Z,16.40
2022-11-04T00:15:15.950Z,16.40
2022-11-04T00:18:03.896Z,16.40
2022-11-04T00:21:09.995Z,16.40
2022-11-04T00:24:18.305Z,16.40
2022-11-04T00:27:24.528Z,16.40
2022-11-04T00:30:13.684Z,16.40
2022-11-04T00:33:19.589Z,16.40
2022-11-04T00:36:08.518Z,16.40
2022-11-04T00:38:57.710Z,16.40
2022-11-04T00:41:48.631Z,16.40
2022-11-04T00:44:37.860Z,16.40
2022-11-04T00:47:27.104Z,16.40
2022-11-04T00:50:16.118Z,16.30
2022-11-04T00:53:05.828Z,16.40
2022-11-04T00:55:55.060Z,16.40
2022-11-04T00:58:45.738Z,16.40
2022-11-04T01:01:35.594Z,16.40
2022-11-04T01:04:24.666Z,16.40
2022-11-04T01:07:14.409Z,16.40
2022-11-04T01:10:03.146Z,16.30
2022-11-04T01:12:54.631Z,16.30
2022-11-04T01:15:45.221Z,16.30
2022-11-04T01:18:35.202Z,16.30
2022-11-04T01:21:24.322Z,16.30
2022-11-04T01:24:13.224Z,16.30
2022-11-04T01:27:02.512Z,16.30
2022-11-04T01:29:51.044Z,16.30
2022-11-04T01:32:41.865Z,16.30
2022-11-04T01:35:31.300Z,16.40
2022-11-04T01:38:20.922Z,16.30
2022-11-04T01:41:11.485Z,16.30
2022-11-04T01:44:02.124Z,16.40
2022-11-04T01:46:54.344Z,16.40
2022-11-04T01:49:47.244Z,16.40
2022-11-04T01:52:43.810Z,16.40
2022-11-04T01:55:35.991Z,16.40
2022-11-04T01:58:30.986Z,16.30
2022-11-04T02:01:20.995Z,16.30
2022-11-04T02:04:26.698Z,16.30
2022-11-04T02:07:17.803Z,16.30
2022-11-04T06:52:15.615Z,12.80
2022-11-04T06:55:04.705Z,12.90
2022-11-04T06:57:53.271Z,12.80
2022-11-04T07:00:42.998Z,12.50
2022-11-04T07:03:32.926Z,12.40
2022-11-04T07:06:22.964Z,12.50
2022-11-04T07:09:15.148Z,12.40
2022-11-04T07:12:04.224Z,12.40
2022-11-04T07:14:53.816Z,12.50
2022-11-04T07:17:44.806Z,12.60
2022-11-04T07:20:33.975Z,12.70
2022-11-04T07:23:22.484Z,12.80
2022-11-04T07:26:13.691Z,13.00
2022-11-04T07:29:02.178Z,13.10
2022-11-04T07:31:51.700Z,13.20
2022-11-04T07:34:41.178Z,13.20
2022-11-04T07:37:29.864Z,13.30
2022-11-04T07:40:19.060Z,13.20
2022-11-04T07:43:09.756Z,13.00
2022-11-04T07:46:02.702Z,12.90
2022-11-04T07:48:52.433Z,13.00
2022-11-04T07:51:41.286Z,13.10
2022-11-04T07:54:30.472Z,13.30
2022-11-04T07:57:20.110Z,13.40
2022-11-04T08:00:14.085Z,13.30
2022-11-04T08:03:03.347Z,13.30
2022-11-04T08:05:57.475Z,13.40
2022-11-04T08:08:48.454Z,13.20
2022-11-04T08:11:37.480Z,13.30
2022-11-04T08:14:26.691Z,13.20
2022-11-04T08:17:17.592Z,13.20
2022-11-04T08:20:06.985Z,13.20
2022-11-04T08:22:55.756Z,13.40
2022-11-04T08:25:45.458Z,13.60
2022-11-04T08:28:35.263Z,13.80
2022-11-04T08:31:25.996Z,14.10
2022-11-04T08:34:18.321Z,14.40
2022-11-04T08:37:08.363Z,14.60
2022-11-04T08:39:57.451Z,14.60
2022-11-04T08:42:46.640Z,14.80
2022-11-04T08:45:35.473Z,15.00
2022-11-04T08:48:25.391Z,15.10
2022-11-04T08:51:18.560Z,15.30
2022-11-04T08:54:07.890Z,15.50
2022-11-04T08:56:56.585Z,15.70
2022-11-04T08:59:45.359Z,15.80
2022-11-04T09:02:34.580Z,15.90
2022-11-04T09:05:23.410Z,15.90
2022-11-04T09:08:13.697Z,16.00
2022-11-04T09:11:02.960Z,16.00
2022-11-04T09:13:52.445Z,16.10
2022-11-04T09:16:43.339Z,16.30
2022-11-04T09:19:32.906Z,16.30
2022-11-04T09:22:22.000Z,16.40
2022-11-04T09:25:12.960Z,16.40
2022-11-04T09:28:02.209Z,16.40
2022-11-04T09:30:51.083Z,16.40
2022-11-04T09:33:40.370Z,16.40
2022-11-04T09:36:29.633Z,16.40
2022-11-04T09:39:19.034Z,16.50
2022-11-04T09:42:38.609Z,16.70
2022-11-04T09:45:30.426Z,16.90
2022-11-04T09:51:32.625Z,17.20
2022-11-04T09:54:25.653Z,17.20
2022-11-04T09:57:19.473Z,17.40
2022-11-04T10:00:17.752Z,17.60
2022-11-04T10:03:22.807Z,17.60
2022-11-04T10:06:25.639Z,17.60
2022-11-04T10:09:33.994Z,17.80
2022-11-04T10:12:40.110Z,17.70
2022-11-04T10:15:43.787Z,18.00
2022-11-04T10:18:57.422Z,18.10
2022-11-04T10:21:54.736Z,18.20
2022-11-04T10:24:50.427Z,18.10
2022-11-04T10:27:43.614Z,18.20
2022-11-04T10:33:30.842Z,18.60
2022-11-04T10:36:19.949Z,18.70
2022-11-04T10:39:17.983Z,18.80
2022-11-04T10:42:07.451Z,18.90
2022-11-04T10:44:56.713Z,18.90
2022-11-04T10:47:52.977Z,19.10
2022-11-04T10:50:49.309Z,19.30
2022-11-04T10:53:38.512Z,19.40
2022-11-04T10:56:37.159Z,19.50
2022-11-04T10:59:29.856Z,19.60
2022-11-04T11:02:18.956Z,19.60
2022-11-04T11:08:32.694Z,19.80
2022-11-04T11:11:43.133Z,19.80
2022-11-04T11:14:38.439Z,20.00
2022-11-04T11:17:37.910Z,20.20
2022-11-04T11:20:32.771Z,20.40
2022-11-04T11:23:37.921Z,20.30
2022-11-04T11:26:33.219Z,20.40
2022-11-04T11:29:25.783Z,20.40
2022-11-04T11:32:25.568Z,20.60
2022-11-04T11:38:19.359Z,20.80
2022-11-04T11:41:24.298Z,20.60
2022-11-04T11:44:25.702Z,20.70
2022-11-04T11:47:22.167Z,21.00
2022-11-04T11:50:17.024Z,21.00
2022-11-04T11:53:16.968Z,21.00
2022-11-04T11:56:17.434Z,21.20
2022-11-04T12:02:30.117Z,21.60
2022-11-04T12:12:14.582Z,21.70
2022-11-04T12:15:26.441Z,21.90
2022-11-04T12:24:30.462Z,22.50
2022-11-04T12:27:27.618Z,22.80
2022-11-04T13:52:11.813Z,23.20
2022-11-04T13:55:04.124Z,23.00
2022-11-04T13:57:58.844Z,23.00
2022-11-04T14:01:11.550Z,22.80
2022-11-04T14:04:19.428Z,22.80
2022-11-04T14:07:11.054Z,22.70
2022-11-04T14:10:01.091Z,22.60
2022-11-04T14:12:50.065Z,22.40
2022-11-04T14:16:02.889Z,22.20
2022-11-04T14:18:53.579Z,22.10
2022-11-04T14:22:07.855Z,22.00
2022-11-04T14:24:58.801Z,21.80
2022-11-04T14:27:49.770Z,21.60
2022-11-04T14:30:52.014Z,21.50
2022-11-04T14:33:53.752Z,21.30
2022-11-04T14:36:44.232Z,21.20
2022-11-04T14:39:39.123Z,20.90
2022-11-04T14:42:47.626Z,20.70
2022-11-04T14:45:42.278Z,20.50
2022-11-04T14:48:32.624Z,20.30
2022-11-04T14:51:29.145Z,20.10
2022-11-04T14:54:23.201Z,19.90
2022-11-04T14:57:16.242Z,19.70
2022-11-04T15:00:34.826Z,19.60
2022-11-04T15:04:09.464Z,19.50
2022-11-04T15:06:55.539Z,19.40
2022-11-04T15:09:50.885Z,19.20
2022-11-04T15:12:51.741Z,19.20
2022-11-04T15:15:44.662Z,19.10
2022-11-04T15:18:34.164Z,19.00
2022-11-04T15:21:24.203Z,18.90
2022-11-04T15:24:17.942Z,18.80
2022-11-04T15:27:08.935Z,18.70
2022-11-04T15:29:59.063Z,18.70
2022-11-04T15:32:59.170Z,18.60
2022-11-04T15:35:48.876Z,18.60
2022-11-04T15:38:48.115Z,18.60
2022-11-04T15:41:58.100Z,18.50
2022-11-04T15:44:48.931Z,18.40
2022-11-04T15:47:38.094Z,18.30
2022-11-04T15:50:27.907Z,18.20
2022-11-04T15:53:17.875Z,18.10
2022-11-04T15:56:08.508Z,17.90
2022-11-04T15:59:00.199Z,17.80
2022-11-04T16:01:50.462Z,17.80
2022-11-04T16:04:39.470Z,17.60
2022-11-04T16:07:36.006Z,17.60
2022-11-04T16:10:28.152Z,17.60
2022-11-04T16:13:25.980Z,17.70
2022-11-04T16:16:27.070Z,17.60
2022-11-04T16:19:23.193Z,17.50
2022-11-04T16:22:13.479Z,17.40
2022-11-04T16:25:06.623Z,17.30
2022-11-04T16:27:56.191Z,17.20
2022-11-04T16:30:58.794Z,17.20
2022-11-04T16:33:49.107Z,17.00
2022-11-04T16:36:38.150Z,17.00
2022-11-04T16:39:27.648Z,17.00
2022-11-04T16:42:18.229Z,17.00
2022-11-04T16:45:10.234Z,17.00
2022-11-04T16:47:59.566Z,17.10
2022-11-04T16:50:49.997Z,17.00
2022-11-04T16:53:39.615Z,17.00
2022-11-04T16:56:29.844Z,17.00
2022-11-04T16:59:19.092Z,17.00
2022-11-04T17:02:20.165Z,17.00
2022-11-04T17:05:11.607Z,16.90
2022-11-04T17:08:05.118Z,16.90
2022-11-04T17:10:55.412Z,16.80
2022-11-04T17:13:44.937Z,16.70
2022-11-04T17:16:34.208Z,16.70
2022-11-04T17:19:23.625Z,16.60
2022-11-04T17:22:13.256Z,16.70
2022-11-04T17:25:03.452Z,16.80
2022-11-04T17:27:52.180Z,16.90
2022-11-04T17:30:41.420Z,16.90
2022-11-04T17:33:30.409Z,16.70
2022-11-04T17:36:20.783Z,16.60
2022-11-04T17:39:10.154Z,16.50
2022-11-04T17:42:18.707Z,16.50
2022-11-04T17:45:09.119Z,16.40
2022-11-04T17:47:58.502Z,16.30
2022-11-04T17:50:47.318Z,16.30
2022-11-04T17:53:36.751Z,16.30
2022-11-04T17:56:26.287Z,16.40
2022-11-04T17:59:20.652Z,16.40
2022-11-04T18:02:09.669Z,16.40
2022-11-04T18:04:59.318Z,16.40
2022-11-04T18:07:47.849Z,16.40
2022-11-04T18:10:37.278Z,16.30
2022-11-04T18:13:25.582Z,16.30
2022-11-04T18:16:17.269Z,16.30
2022-11-04T18:19:06.767Z,16.30
2022-11-04T18:24:45.413Z,16.10
2022-11-04T18:27:35.038Z,15.90
2022-11-04T18:30:23.781Z,15.90
2022-11-04T18:33:14.530Z,15.90
2022-11-04T18:36:05.684Z,15.90
2022-11-04T18:38:55.074Z,15.80
2022-11-04T18:41:44.714Z,15.60
2022-11-04T18:44:34.199Z,15.20
2022-11-04T18:47:24.001Z,15.30
2022-11-04T18:50:14.986Z,15.50
2022-11-04T18:53:04.067Z,15.60
2022-11-04T18:55:52.821Z,15.50
2022-11-04T18:58:42.820Z,15.40
2022-11-04T19:01:33.973Z,15.40
2022-11-04T19:04:22.973Z,15.40
2022-11-04T19:07:13.572Z,15.50
2022-11-04T19:10:02.423Z,15.40
2022-11-04T19:13:09.179Z,15.50
2022-11-04T19:16:06.589Z,15.50
2022-11-04T19:18:56.533Z,15.20
2022-11-04T19:21:47.649Z,14.90
2022-11-04T19:24:39.171Z,14.50
2022-11-04T19:27:28.300Z,14.60
2022-11-04T19:30:18.162Z,14.70
2022-11-04T19:33:07.789Z,14.70
2022-11-04T19:35:57.334Z,14.90
2022-11-04T19:38:47.233Z,14.90
2022-11-04T19:41:54.851Z,14.90
2022-11-04T19:44:44.893Z,14.90
2022-11-04T19:47:33.701Z,14.50
2022-11-04T19:50:23.623Z,14.40
2022-11-04T19:53:13.139Z,14.50
2022-11-04T19:56:02.286Z,14.60
2022-11-04T19:58:52.996Z,14.60
2022-11-04T20:01:42.567Z,14.40
2022-11-04T20:04:32.042Z,14.30
2022-11-04T20:07:21.859Z,14.30
2022-11-04T20:10:11.668Z,14.20
2022-11-04T20:13:17.833Z,14.30
2022-11-04T20:16:18.112Z,14.40
2022-11-04T20:19:07.015Z,14.50
2022-11-04T20:21:56.167Z,14.30
2022-11-04T20:24:45.829Z,14.10
2022-11-04T20:27:35.941Z,13.90
2022-11-04T20:30:25.315Z,14.20
2022-11-04T20:33:16.524Z,14.40
2022-11-04T20:36:05.511Z,14.10
2022-11-04T20:38:57.546Z,14.10
2022-11-04T20:41:47.451Z,13.80
2022-11-04T20:44:37.063Z,13.30
2022-11-04T20:47:26.276Z,13.10
2022-11-04T20:50:17.600Z,13.10
2022-11-04T20:53:07.076Z,13.00
2022-11-04T20:55:57.936Z,12.90
2022-11-04T20:58:48.734Z,13.10
2022-11-04T21:01:39.398Z,13.20
2022-11-04T21:04:33.272Z,13.50
2022-11-04T21:07:27.967Z,13.30
2022-11-04T21:10:17.302Z,13.20
2022-11-04T21:13:06.521Z,13.30
2022-11-04T21:15:56.622Z,13.30
2022-11-04T21:18:45.369Z,13.60
2022-11-04T21:21:34.628Z,13.90
2022-11-04T21:24:25.919Z,14.10
2022-11-04T21:27:15.269Z,14.20
2022-11-04T21:30:07.128Z,14.30
2022-11-04T21:32:56.693Z,14.40
2022-11-04T21:35:48.183Z,14.40
2022-11-04T21:38:37.090Z,14.50
2022-11-04T21:41:29.957Z,14.50
2022-11-04T21:44:19.193Z,14.60
2022-11-04T21:47:08.608Z,14.60
2022-11-04T21:49:58.448Z,14.60
2022-11-04T21:52:47.690Z,14.50
2022-11-04T21:55:37.042Z,14.50
2022-11-04T21:58:28.852Z,14.50
2022-11-04T22:01:19.911Z,14.50
2022-11-04T22:04:09.339Z,14.60
2022-11-04T22:06:58.438Z,14.20
2022-11-04T22:09:48.490Z,13.90
2022-11-04T22:12:38.044Z,13.90
2022-11-04T22:15:42.037Z,14.10
2022-11-04T22:18:33.388Z,14.20
2022-11-04T22:21:24.859Z,14.30
2022-11-04T22:24:14.559Z,14.30
2022-11-04T22:27:03.408Z,14.40
2022-11-04T22:29:52.983Z,14.30
2022-11-04T22:32:43.982Z,14.30
2022-11-04T22:35:32.997Z,14.40
2022-11-04T22:38:22.573Z,14.40
2022-11-04T22:41:14.060Z,14.50
2022-11-04T22:44:03.339Z,14.50
2022-11-04T22:46:52.296Z,14.50
2022-11-04T22:49:43.354Z,14.50
2022-11-04T22:52:33.007Z,14.50
2022-11-04T22:55:22.541Z,14.20
2022-11-04T22:58:11.820Z,14.20
2022-11-04T23:01:03.298Z,13.80
2022-11-04T23:03:53.340Z,13.20
2022-11-04T23:06:43.784Z,12.90
2022-11-04T23:09:34.267Z,12.80
2022-11-04T23:12:40.824Z,13.00
2022-11-04T23:15:47.784Z,13.30
2022-11-04T23:18:45.146Z,13.50
2022-11-04T23:21:51.568Z,13.70
2022-11-04T23:24:59.784Z,13.80
2022-11-04T23:28:08.174Z,13.70
2022-11-04T23:30:59.754Z,13.80
2022-11-04T23:34:06.180Z,13.90
2022-11-04T23:37:14.044Z,13.90
2022-11-04T23:40:05.119Z,13.90
2022-11-04T23:42:54.324Z,14.00
2022-11-04T23:46:00.528Z,14.00
2022-11-04T23:49:21.596Z,14.00
2022-11-04T23:52:28.129Z,14.00
2022-11-04T23:55:42.236Z,13.90
2022-11-04T23:58:48.514Z,13.60
